In Rescue
 
Open Full Screen Window  High Contrast Mode
Wind Gusting 00 knots
05
February 25, 2021 5:31 PM EST
Weather Information
Wind Direction
  250 °
Wind Speed
  05 kt (6 mph)
Wind Gust
  00 kt (0 mph)
Altimeter
30.11 in
Visibility
10 SM
Temperature
-01° C
30° F
Dewpoint
-09° C
16° F
Humidity
55%
1hr Rain Fall
00.00 in.
24hr Rain Fall
00.00 in.
Sky Condition
Scattered @ 6,500 ft
Scattered @ 4,800 ft
VFR

METAR KSAW 252231Z AUTO 25005KT 10SM SCT048 SCT065 M01/M09 A3011 RMK AO2 T10091088

FAA Disclaimer: The data displayed is for advisory purposes only and is not to be used for flight planning or operations.